Time;durP1;ratioP1;P1;durP2;ratioP2;P2;SDS_P1;SDS_P2;PMS_P1;PMS_P2;Temp;Humidity;BMP_temperature;BMP_pressure;BME280_temperature;BME280_humidity;BME280_pressure;Samples;Min_cycle;Max_cycle;Signal;HPM_P1;HPM_P2
2023/07/30 00:01:46;;;;;;;;;;;;;;;15.74;83.48;100897.72;5011870;28;20000;-57
2023/07/30 00:04:11;;;;;;;;;;;;;;;15.70;83.59;100888.97;5026490;28;19913;-57
2023/07/30 00:06:37;;;;;;;;;;;;;;;15.65;83.98;100895.94;5007958;28;20371;-57
2023/07/30 00:09:02;;;;;;;;;;;;;;;15.61;83.84;100895.06;5010586;28;20364;-57
2023/07/30 00:11:27;;;;;;;;;;;;;;;15.60;84.29;100902.94;5008667;28;19913;-56
2023/07/30 00:13:52;;;;;;;;;;;;;;;15.57;84.39;100895.00;5013354;28;20007;-56
2023/07/30 00:16:17;;;;;;;;;;;;;;;15.56;84.54;100899.41;5010090;28;19929;-56
2023/07/30 00:18:43;;;;;;;;;;;;;;;15.54;84.43;100892.38;5017024;28;20279;-56
2023/07/30 00:21:08;;;;;;;;;;;;;;;15.52;84.41;100888.88;5012275;28;20292;-57
2023/07/30 00:23:33;;;;;;;;;;;;;;;15.51;84.62;100887.13;5001813;28;20287;-57
2023/07/30 00:25:58;;;;;;;;;;;;;;;15.51;84.59;100887.13;5008156;28;20363;-56
2023/07/30 00:28:23;;;;;;;;;;;;;;;15.47;84.95;100891.50;5009988;28;20384;-56
2023/07/30 00:30:49;;;;;;;;;;;;;;;15.45;84.46;100898.47;5013189;28;19925;-57
2023/07/30 00:33:14;;;;;;;;;;;;;;;15.42;84.87;100888.84;5013583;28;19936;-56
2023/07/30 00:35:39;;;;;;;;;;;;;;;15.42;84.80;100898.47;5011870;28;19944;-56
2023/07/30 00:38:04;;;;;;;;;;;;;;;15.39;85.02;100899.31;5013114;28;19914;-57
2023/07/30 00:40:29;;;;;;;;;;;;;;;15.36;85.31;100894.06;5018118;28;19916;-57
2023/07/30 00:42:55;;;;;;;;;;;;;;;15.35;85.43;100896.69;5013114;28;19972;-57
2023/07/30 00:45:20;;;;;;;;;;;;;;;15.34;85.04;100898.44;5013769;28;19932;-56
2023/07/30 00:47:46;;;;;;;;;;;;;;;15.33;85.29;100899.31;5011450;28;19917;-57
2023/07/30 00:50:12;;;;;;;;;;;;;;;15.36;84.94;100901.06;5020663;28;19920;-56
2023/07/30 00:52:38;;;;;;;;;;;;;;;15.35;85.72;100901.94;5010710;28;19920;-56
2023/07/30 00:55:03;;;;;;;;;;;;;;;15.30;85.24;100907.16;5013764;28;19910;-57
2023/07/30 00:57:29;;;;;;;;;;;;;;;15.27;85.16;100909.78;5013445;28;19909;-57
2023/07/30 00:59:55;;;;;;;;;;;;;;;15.23;85.80;100908.88;5015840;28;19913;-57
2023/07/30 01:02:21;;;;;;;;;;;;;;;15.19;85.64;100900.97;5012982;28;19925;-56
2023/07/30 01:04:46;;;;;;;;;;;;;;;15.16;85.85;100903.59;5010838;28;20275;-57
2023/07/30 01:07:11;;;;;;;;;;;;;;;15.13;86.21;100909.69;5012331;28;19921;-56
2023/07/30 01:09:36;;;;;;;;;;;;;;;15.13;85.86;100914.94;5013636;28;19952;-57
2023/07/30 01:12:02;;;;;;;;;;;;;;;15.15;86.26;100920.19;5011385;28;19917;-56
2023/07/30 01:14:27;;;;;;;;;;;;;;;15.15;85.86;100922.81;5016466;28;19917;-56
2023/07/30 01:16:53;;;;;;;;;;;;;;;15.12;86.14;100924.56;5012085;28;19967;-57
2023/07/30 01:19:18;;;;;;;;;;;;;;;15.08;86.72;100924.56;5011651;28;19924;-57
2023/07/30 01:21:43;;;;;;;;;;;;;;;15.06;86.79;100931.53;5009441;28;19910;-56
2023/07/30 01:24:08;;;;;;;;;;;;;;;15.06;87.17;100927.16;4995578;28;19988;-57
2023/07/30 01:26:37;;;;;;;;;;;;;;;15.03;87.12;100934.13;5014332;28;20015;-57
2023/07/30 01:29:06;;;;;;;;;;;;;;;15.00;87.14;100929.72;5010936;28;19920;-57
2023/07/30 01:31:33;;;;;;;;;;;;;;;15.03;88.04;100927.13;5010465;28;19920;-56
2023/07/30 01:33:59;;;;;;;;;;;;;;;14.99;87.32;100938.50;5011881;28;19940;-57
2023/07/30 01:36:24;;;;;;;;;;;;;;;14.99;87.53;100932.34;5011936;28;19917;-56
2023/07/30 01:38:50;;;;;;;;;;;;;;;14.98;87.62;100938.47;5012814;28;19913;-56
2023/07/30 01:41:15;;;;;;;;;;;;;;;14.95;88.11;100947.22;5009091;28;20276;-57
2023/07/30 01:43:40;;;;;;;;;;;;;;;14.93;87.98;100933.19;5015808;28;20013;-56
2023/07/30 01:46:06;;;;;;;;;;;;;;;14.94;87.90;100940.19;5027941;28;19921;-57
2023/07/30 01:48:31;;;;;;;;;;;;;;;14.91;87.70;100942.78;5014351;28;20506;-56
2023/07/30 01:50:56;;;;;;;;;;;;;;;14.90;88.09;100951.53;5015197;28;20011;-57
2023/07/30 01:53:21;;;;;;;;;;;;;;;14.87;88.64;100946.25;5014790;28;19913;-56
2023/07/30 01:55:47;;;;;;;;;;;;;;;14.83;88.66;100944.47;5010755;28;20391;-56
2023/07/30 01:58:13;;;;;;;;;;;;;;;14.82;89.53;100945.38;5014805;28;19913;-57
2023/07/30 02:00:38;;;;;;;;;;;;;;;14.80;89.71;100947.94;5011722;28;19917;-57
2023/07/30 02:03:04;;;;;;;;;;;;;;;14.80;89.52;100939.22;5010924;28;20286;-57
2023/07/30 02:05:29;;;;;;;;;;;;;;;14.77;89.01;100950.53;5014652;28;19917;-56
2023/07/30 02:07:54;;;;;;;;;;;;;;;14.76;89.70;100944.44;5025964;28;19978;-55
2023/07/30 02:10:19;;;;;;;;;;;;;;;14.75;89.16;100953.16;5017878;28;19913;-57
2023/07/30 02:12:44;;;;;;;;;;;;;;;14.77;90.28;100943.56;4994520;28;19936;-57
2023/07/30 02:15:09;;;;;;;;;;;;;;;14.76;90.45;100949.69;5009656;28;19913;-57
2023/07/30 02:17:35;;;;;;;;;;;;;;;14.71;90.55;100946.13;5011876;28;19909;-57
2023/07/30 02:20:00;;;;;;;;;;;;;;;14.70;90.25;100939.16;5011895;28;20132;-57
2023/07/30 02:22:25;;;;;;;;;;;;;;;14.69;89.66;100945.25;5013136;28;20044;-57
2023/07/30 02:24:50;;;;;;;;;;;;;;;14.70;89.92;100938.25;5011084;28;19959;-57
2023/07/30 02:27:15;;;;;;;;;;;;;;;14.72;90.50;100945.28;4994061;28;20319;-56
2023/07/30 02:29:41;;;;;;;;;;;;;;;14.70;90.52;100923.41;5010101;28;19975;-57
2023/07/30 02:32:06;;;;;;;;;;;;;;;14.70;92.32;100928.66;5015157;28;19983;-57
2023/07/30 02:34:31;;;;;;;;;;;;;;;14.69;92.25;100932.13;5018515;28;19909;-56
2023/07/30 02:36:56;;;;;;;;;;;;;;;14.69;92.82;100931.28;5008536;28;19920;-57
2023/07/30 02:39:22;;;;;;;;;;;;;;;14.67;92.73;100930.38;5027498;28;20371;-57
2023/07/30 02:41:47;;;;;;;;;;;;;;;14.69;92.52;100934.75;5017518;28;19964;-57
2023/07/30 02:44:12;;;;;;;;;;;;;;;14.67;92.67;100928.63;5011544;28;19915;-57
2023/07/30 02:46:37;;;;;;;;;;;;;;;14.68;92.50;100929.50;5019707;28;19923;-56
2023/07/30 02:49:02;;;;;;;;;;;;;;;14.71;92.96;100924.28;5009754;28;20314;-57
2023/07/30 02:51:28;;;;;;;;;;;;;;;14.73;92.47;100931.31;5014873;28;19913;-57
2023/07/30 02:53:57;;;;;;;;;;;;;;;14.76;92.44;100930.44;5009449;28;19913;-57
2023/07/30 02:56:22;;;;;;;;;;;;;;;14.77;92.74;100927.84;5011177;28;19919;-57
2023/07/30 02:58:47;;;;;;;;;;;;;;;14.81;92.53;100933.09;5017109;28;19917;-57
2023/07/30 03:01:12;;;;;;;;;;;;;;;14.82;93.19;100938.34;5011013;28;19921;-57
2023/07/30 03:03:37;;;;;;;;;;;;;;;14.85;93.46;100932.28;5011237;28;19913;-57
2023/07/30 03:06:03;;;;;;;;;;;;;;;14.84;93.40;100934.00;5010288;28;19928;-57
2023/07/30 03:08:28;;;;;;;;;;;;;;;14.86;93.38;100932.28;5010627;28;19948;-57
2023/07/30 03:10:53;;;;;;;;;;;;;;;14.88;93.20;100934.91;5012623;28;19920;-57
2023/07/30 03:13:18;;;;;;;;;;;;;;;14.90;93.92;100934.06;5013266;28;20401;-57
2023/07/30 03:15:43;;;;;;;;;;;;;;;14.89;93.61;100934.06;5008793;28;20425;-57
2023/07/30 03:18:09;;;;;;;;;;;;;;;14.94;94.44;100934.94;5018072;28;19989;-57
2023/07/30 03:20:34;;;;;;;;;;;;;;;14.90;94.02;100935.78;5002247;28;19913;-57
2023/07/30 03:22:59;;;;;;;;;;;;;;;14.88;94.64;100940.16;5010087;28;20341;-57
2023/07/30 03:25:24;;;;;;;;;;;;;;;14.89;94.50;100947.16;5006265;28;19917;-57
2023/07/30 03:27:49;;;;;;;;;;;;;;;14.87;94.58;100934.00;5008947;28;20372;-57
2023/07/30 03:30:15;;;;;;;;;;;;;;;14.87;94.29;100934.00;5011081;28;19920;-57
2023/07/30 03:32:40;;;;;;;;;;;;;;;14.89;94.54;100937.53;5010167;28;19917;-57
2023/07/30 03:35:05;;;;;;;;;;;;;;;14.90;95.34;100935.78;5016683;28;19924;-57
2023/07/30 03:37:31;;;;;;;;;;;;;;;14.89;95.32;100936.69;5010696;28;19967;-57
2023/07/30 03:39:56;;;;;;;;;;;;;;;14.87;95.37;100941.00;5010768;28;20004;-57
2023/07/30 03:42:21;;;;;;;;;;;;;;;14.89;94.52;100947.16;5006786;28;19928;-57
2023/07/30 03:44:46;;;;;;;;;;;;;;;14.91;94.94;100945.41;5013579;28;19917;-57
2023/07/30 03:47:11;;;;;;;;;;;;;;;14.92;95.38;100949.81;5008611;28;19921;-57
2023/07/30 03:49:37;;;;;;;;;;;;;;;14.94;95.36;100950.69;5006021;28;20384;-57
2023/07/30 03:52:03;;;;;;;;;;;;;;;14.95;95.23;100962.94;5018859;28;19948;-57
2023/07/30 03:54:28;;;;;;;;;;;;;;;14.97;94.79;100958.56;5020143;28;20380;-57
2023/07/30 03:56:54;;;;;;;;;;;;;;;14.97;94.70;100961.19;5018375;28;20040;-57
2023/07/30 03:59:19;;;;;;;;;;;;;;;14.97;94.87;100953.31;5012079;28;20291;-57
2023/07/30 04:01:44;;;;;;;;;;;;;;;15.00;94.95;100958.59;5010547;28;20360;-57
2023/07/30 04:04:09;;;;;;;;;;;;;;;15.00;95.02;100961.22;5010922;28;19913;-57
2023/07/30 04:06:34;;;;;;;;;;;;;;;15.00;95.47;100963.84;5010546;28;19914;-57
2023/07/30 04:09:00;;;;;;;;;;;;;;;14.97;95.55;100960.34;5009334;28;20363;-57
2023/07/30 04:11:25;;;;;;;;;;;;;;;14.98;96.61;100962.97;5012970;28;20012;-57
2023/07/30 04:13:50;;;;;;;;;;;;;;;14.96;96.09;100959.44;5019647;28;19983;-57
2023/07/30 04:16:15;;;;;;;;;;;;;;;14.97;96.00;100968.22;5014172;28;19955;-57
2023/07/30 04:18:40;;;;;;;;;;;;;;;14.97;96.08;100958.56;5016621;28;19913;-57
2023/07/30 04:21:05;;;;;;;;;;;;;;;15.01;95.99;100967.38;5014491;28;19952;-57
2023/07/30 04:23:31;;;;;;;;;;;;;;;14.99;96.57;100956.84;5000108;28;20367;-57
2023/07/30 04:25:56;;;;;;;;;;;;;;;14.99;96.01;100969.97;5006467;28;19917;-57
2023/07/30 04:28:21;;;;;;;;;;;;;;;15.02;96.32;100971.72;5013568;28;19923;-57
2023/07/30 04:30:46;;;;;;;;;;;;;;;14.99;96.50;100971.69;5013052;28;19914;-56
2023/07/30 04:33:13;;;;;;;;;;;;;;;15.00;96.54;100963.84;5015256;28;20328;-57
2023/07/30 04:35:39;;;;;;;;;;;;;;;15.02;96.80;100967.38;5014054;28;19910;-57
2023/07/30 04:38:04;;;;;;;;;;;;;;;15.11;97.28;100961.31;5013389;28;20390;-57
2023/07/30 04:40:29;;;;;;;;;;;;;;;15.06;96.69;100969.16;5011706;28;19967;-57
2023/07/30 04:42:54;;;;;;;;;;;;;;;15.08;96.09;100967.41;5013674;28;19925;-57
2023/07/30 04:45:19;;;;;;;;;;;;;;;15.08;96.46;100959.53;5013208;28;20419;-57
2023/07/30 04:47:45;;;;;;;;;;;;;;;15.10;96.34;100962.16;5012298;28;19913;-56
2023/07/30 04:50:10;;;;;;;;;;;;;;;15.13;96.55;100970.06;5009363;28;20186;-57
2023/07/30 04:52:35;;;;;;;;;;;;;;;15.17;96.20;100955.22;5022938;28;20161;-57
2023/07/30 04:55:00;;;;;;;;;;;;;;;15.17;96.60;100963.97;5019558;28;19965;-58
2023/07/30 04:57:26;;;;;;;;;;;;;;;15.18;96.96;100962.22;5023585;28;19937;-57
2023/07/30 04:59:51;;;;;;;;;;;;;;;15.18;96.67;100967.47;5011676;28;19943;-57
2023/07/30 05:02:17;;;;;;;;;;;;;;;15.21;97.56;100972.75;5017564;28;19913;-57
2023/07/30 05:04:42;;;;;;;;;;;;;;;15.24;97.47;100970.16;5015444;28;19912;-57
2023/07/30 05:07:07;;;;;;;;;;;;;;;15.24;97.61;100972.78;5010740;28;19918;-57
2023/07/30 05:09:32;;;;;;;;;;;;;;;15.25;96.95;100985.00;5011388;28;20375;-57
2023/07/30 05:11:57;;;;;;;;;;;;;;;15.29;96.88;100981.53;5013169;28;19916;-57
2023/07/30 05:14:24;;;;;;;;;;;;;;;15.32;96.91;100993.81;5010656;28;19913;-57
2023/07/30 05:16:49;;;;;;;;;;;;;;;15.33;97.92;100991.19;5014242;28;19921;-57
2023/07/30 05:19:15;;;;;;;;;;;;;;;15.41;98.17;100988.59;5013565;28;20288;-57
2023/07/30 05:21:40;;;;;;;;;;;;;;;15.37;97.71;100998.22;5010798;28;19953;-57
2023/07/30 05:24:07;;;;;;;;;;;;;;;15.33;98.03;100996.44;5012795;28;19913;-57
2023/07/30 05:26:32;;;;;;;;;;;;;;;15.30;97.51;100988.56;5013015;28;19998;-57
2023/07/30 05:28:57;;;;;;;;;;;;;;;15.33;98.18;100991.19;5012128;28;19955;-57
2023/07/30 05:31:22;;;;;;;;;;;;;;;15.34;97.98;100999.94;5019819;28;19913;-57
2023/07/30 05:33:47;;;;;;;;;;;;;;;15.33;97.75;101003.47;5011965;28;20331;-57
2023/07/30 05:36:13;;;;;;;;;;;;;;;15.34;97.55;100998.22;5011145;28;19968;-57
2023/07/30 05:38:38;;;;;;;;;;;;;;;15.38;98.00;100996.47;5012263;28;20405;-57
2023/07/30 05:41:03;;;;;;;;;;;;;;;15.38;97.54;100981.63;5016047;28;20381;-57
2023/07/30 05:43:28;;;;;;;;;;;;;;;15.40;98.26;100985.13;5014245;28;20368;-57
2023/07/30 05:45:53;;;;;;;;;;;;;;;15.41;98.28;100986.88;5010872;28;20451;-57
2023/07/30 05:48:19;;;;;;;;;;;;;;;15.42;97.57;100985.97;5010778;28;19917;-57
2023/07/30 05:50:44;;;;;;;;;;;;;;;15.45;97.95;100987.75;5016027;28;19905;-57
2023/07/30 05:53:09;;;;;;;;;;;;;;;15.47;97.63;100983.41;5022176;28;19913;-57
2023/07/30 05:55:34;;;;;;;;;;;;;;;15.52;97.75;100991.31;5010082;28;19956;-57
2023/07/30 05:57:59;;;;;;;;;;;;;;;15.57;98.40;100998.34;5017510;28;19963;-57
2023/07/30 06:00:25;;;;;;;;;;;;;;;15.67;99.24;100993.13;5011272;28;19921;-57
2023/07/30 06:02:50;;;;;;;;;;;;;;;15.62;98.90;100991.34;5011478;28;19905;-57
2023/07/30 06:05:15;;;;;;;;;;;;;;;15.61;98.45;100993.97;5012069;28;19913;-57
2023/07/30 06:07:40;;;;;;;;;;;;;;;15.65;98.84;100998.38;5017198;28;19947;-57
2023/07/30 06:10:05;;;;;;;;;;;;;;;15.64;98.21;100997.50;5012097;28;19921;-57
2023/07/30 06:12:31;;;;;;;;;;;;;;;15.69;98.84;101002.78;5012166;28;20402;-57
2023/07/30 06:14:56;;;;;;;;;;;;;;;15.76;99.45;100999.31;5021473;28;20270;-57
2023/07/30 06:17:21;;;;;;;;;;;;;;;15.74;98.71;101006.31;5010345;28;19917;-57
2023/07/30 06:19:47;;;;;;;;;;;;;;;15.74;98.55;101001.06;5022573;28;19939;-57
2023/07/30 06:22:12;;;;;;;;;;;;;;;15.84;99.31;101007.25;5016248;28;19940;-57
2023/07/30 06:24:37;;;;;;;;;;;;;;;15.78;98.59;101001.94;5022572;28;19932;-57
2023/07/30 06:27:02;;;;;;;;;;;;;;;15.78;98.85;101004.56;5015055;28;19964;-57
2023/07/30 06:29:27;;;;;;;;;;;;;;;15.80;98.84;101006.38;5011830;28;19941;-57
2023/07/30 06:31:54;;;;;;;;;;;;;;;15.84;98.39;101003.75;5011484;28;20012;-57
2023/07/30 06:34:19;;;;;;;;;;;;;;;15.85;99.00;101001.13;5016317;28;20031;-57
2023/07/30 06:36:45;;;;;;;;;;;;;;;15.90;98.32;101009.94;5011171;28;19963;-57
2023/07/30 06:39:10;;;;;;;;;;;;;;;15.92;98.85;101000.28;5011587;28;20328;-57
2023/07/30 06:41:35;;;;;;;;;;;;;;;15.99;99.38;101006.47;5010488;28;20323;-57
2023/07/30 06:44:01;;;;;;;;;;;;;;;16.00;98.86;101000.31;5010647;28;20362;-57
2023/07/30 06:46:26;;;;;;;;;;;;;;;15.98;98.92;101002.06;5009251;28;20402;-57
2023/07/30 06:48:51;;;;;;;;;;;;;;;16.01;99.06;101009.97;5017274;28;19952;-57
2023/07/30 06:51:19;;;;;;;;;;;;;;;16.08;98.64;101005.63;5019757;28;19913;-57
2023/07/30 06:53:44;;;;;;;;;;;;;;;16.12;98.45;101005.63;5010569;28;19917;-57
2023/07/30 06:56:09;;;;;;;;;;;;;;;16.20;98.63;101007.41;5008014;28;20314;-57
2023/07/30 06:58:34;;;;;;;;;;;;;;;16.24;98.08;101011.81;5009148;28;19980;-57
2023/07/30 07:00:59;;;;;;;;;;;;;;;16.31;98.75;101008.31;5010497;28;20316;-57
2023/07/30 07:03:25;;;;;;;;;;;;;;;16.27;97.55;101017.06;5017980;28;19928;-57
2023/07/30 07:05:54;;;;;;;;;;;;;;;16.29;97.69;101013.56;5009299;28;19917;-57
2023/07/30 07:08:20;;;;;;;;;;;;;;;16.34;97.99;101019.69;5015498;28;19975;-57
2023/07/30 07:10:45;;;;;;;;;;;;;;;16.41;97.71;101017.97;5013899;28;20339;-57
2023/07/30 07:13:10;;;;;;;;;;;;;;;16.42;97.50;101011.81;5016341;28;20067;-57
2023/07/30 07:15:35;;;;;;;;;;;;;;;16.41;97.37;101015.34;5013797;28;19913;-57
2023/07/30 07:18:00;;;;;;;;;;;;;;;16.49;96.85;101028.50;5009325;28;19958;-57
2023/07/30 07:20:26;;;;;;;;;;;;;;;16.52;97.26;101024.16;5009526;28;19913;-57
2023/07/30 07:22:51;;;;;;;;;;;;;;;16.57;96.51;101020.63;5012172;28;19917;-57
2023/07/30 07:25:19;;;;;;;;;;;;;;;16.63;97.06;101012.75;5013602;28;20482;-57
2023/07/30 07:27:44;;;;;;;;;;;;;;;16.71;95.95;101010.13;5007035;28;20416;-57
2023/07/30 07:30:09;;;;;;;;;;;;;;;16.80;95.96;101024.19;5010738;28;19919;-57
2023/07/30 07:32:37;;;;;;;;;;;;;;;16.81;96.06;101020.66;5005988;28;19917;-57
2023/07/30 07:35:03;;;;;;;;;;;;;;;16.91;96.42;101018.94;5006689;28;20367;-57
2023/07/30 07:37:28;;;;;;;;;;;;;;;17.02;95.65;101019.81;5007610;28;19928;-57
2023/07/30 07:39:53;;;;;;;;;;;;;;;17.13;95.47;101019.84;5007776;28;19928;-57
2023/07/30 07:42:19;;;;;;;;;;;;;;;17.21;95.61;101031.22;5006256;28;19925;-57
2023/07/30 07:44:45;;;;;;;;;;;;;;;17.29;94.38;101032.97;5010798;28;20367;-57
2023/07/30 07:47:11;;;;;;;;;;;;;;;17.24;94.23;101032.97;5010150;28;19964;-57
2023/07/30 07:49:36;;;;;;;;;;;;;;;17.19;94.75;101038.25;5012727;28;19964;-56
2023/07/30 07:52:01;;;;;;;;;;;;;;;17.24;92.14;101040.00;5013970;28;19920;-57
2023/07/30 07:54:26;;;;;;;;;;;;;;;17.16;92.51;101025.09;5011939;28;19913;-57
2023/07/30 07:56:52;;;;;;;;;;;;;;;17.06;93.08;101032.97;5013454;28;19960;-57
2023/07/30 07:59:17;;;;;;;;;;;;;;;17.12;93.51;101028.59;5015406;28;19921;-57
2023/07/30 08:01:42;;;;;;;;;;;;;;;17.17;92.85;101033.84;5009189;28;20425;-57
2023/07/30 08:04:07;;;;;;;;;;;;;;;17.17;92.16;101032.09;5014246;28;19952;-57
2023/07/30 08:06:32;;;;;;;;;;;;;;;17.28;91.98;101031.19;5010478;28;19956;-57
2023/07/30 08:08:58;;;;;;;;;;;;;;;17.31;91.76;101039.13;5010268;28;20318;-57
2023/07/30 08:11:23;;;;;;;;;;;;;;;17.40;90.90;101039.09;5014435;28;19909;-57
2023/07/30 08:13:48;;;;;;;;;;;;;;;17.31;91.60;101050.53;5014326;28;19952;-57
2023/07/30 08:16:13;;;;;;;;;;;;;;;17.35;91.84;101044.38;5011736;28;19952;-57
2023/07/30 08:18:38;;;;;;;;;;;;;;;17.50;91.12;101048.75;5014432;28;20292;-57
2023/07/30 08:21:04;;;;;;;;;;;;;;;17.47;91.39;101053.16;5013139;28;19910;-57
2023/07/30 08:23:29;;;;;;;;;;;;;;;17.57;91.46;101044.34;5012242;28;19963;-57
2023/07/30 08:25:54;;;;;;;;;;;;;;;17.55;90.22;101052.25;5020084;28;20019;-57
2023/07/30 08:28:19;;;;;;;;;;;;;;;17.51;90.06;101047.88;5004072;28;20430;-57
2023/07/30 08:30:45;;;;;;;;;;;;;;;17.54;89.49;101055.75;5024222;28;19940;-56
2023/07/30 08:33:10;;;;;;;;;;;;;;;17.49;89.63;101057.50;5012616;28;20326;-57
2023/07/30 08:35:35;;;;;;;;;;;;;;;17.61;87.58;101045.19;5013865;28;20342;-57
2023/07/30 08:38:00;;;;;;;;;;;;;;;17.53;88.66;101046.09;5013230;28;19959;-57
2023/07/30 08:40:25;;;;;;;;;;;;;;;17.65;85.94;101046.94;5013716;28;19909;-57
2023/07/30 08:42:51;;;;;;;;;;;;;;;17.53;87.39;101040.81;5013741;28;20004;-57
2023/07/30 08:45:16;;;;;;;;;;;;;;;17.46;87.66;101051.38;5013080;28;19913;-57
2023/07/30 08:47:42;;;;;;;;;;;;;;;17.56;87.83;101050.47;5012867;28;19917;-57
2023/07/30 08:50:07;;;;;;;;;;;;;;;17.48;88.36;101054.88;5013797;28;19910;-57
2023/07/30 08:52:34;;;;;;;;;;;;;;;17.50;88.26;101047.88;5013627;28;19914;-57
2023/07/30 08:55:01;;;;;;;;;;;;;;;17.47;88.31;101053.16;5012447;28;19917;-57
2023/07/30 08:57:27;;;;;;;;;;;;;;;17.51;88.67;101057.50;5013165;28;19909;-58
2023/07/30 09:00:11;;;;;;;;;;;;;;;17.39;90.90;101061.03;5012190;28;19917;-59
2023/07/30 09:02:43;;;;;;;;;;;;;;;17.05;93.09;101058.44;5013363;28;20468;-58
2023/07/30 09:05:08;;;;;;;;;;;;;;;16.95;94.46;101056.69;5012952;28;20368;-59
2023/07/30 09:07:34;;;;;;;;;;;;;;;16.74;95.21;101055.72;5012439;28;19917;-59
2023/07/30 09:09:59;;;;;;;;;;;;;;;16.65;96.60;101047.81;5010113;28;19940;-59
2023/07/30 09:12:34;;;;;;;;;;;;;;;16.64;98.01;101048.69;5012751;28;20465;-59
2023/07/30 09:15:00;;;;;;;;;;;;;;;16.61;98.22;101048.69;5013198;28;20356;-59
2023/07/30 09:17:25;;;;;;;;;;;;;;;16.82;98.49;101045.22;4994057;28;19919;-59
2023/07/30 09:19:51;;;;;;;;;;;;;;;17.08;99.57;101050.53;5012364;28;20099;-60
2023/07/30 09:22:26;;;;;;;;;;;;;;;17.28;99.75;101053.16;5012902;28;19957;-59
2023/07/30 09:24:52;;;;;;;;;;;;;;;17.50;98.98;101045.22;5012218;28;19909;-59
2023/07/30 09:27:22;;;;;;;;;;;;;;;17.68;98.54;101042.56;5012733;28;19913;-59
2023/07/30 09:29:52;;;;;;;;;;;;;;;17.98;94.02;101035.47;5012930;28;20382;-59
2023/07/30 09:32:17;;;;;;;;;;;;;;;18.12;92.75;101032.78;5011334;28;20095;-59
2023/07/30 09:34:44;;;;;;;;;;;;;;;18.20;92.92;101036.22;5012897;28;19979;-59
2023/07/30 09:37:09;;;;;;;;;;;;;;;18.31;91.03;101033.56;5012810;28;19917;-59
2023/07/30 09:39:37;;;;;;;;;;;;;;;18.38;89.67;101043.19;5012156;28;19913;-59
2023/07/30 09:42:02;;;;;;;;;;;;;;;18.59;89.57;101033.38;5011142;28;19944;-59
2023/07/30 09:44:27;;;;;;;;;;;;;;;18.89;88.12;101047.28;5011314;28;19913;-59
2023/07/30 09:46:52;;;;;;;;;;;;;;;19.03;85.75;101042.78;5011759;28;19924;-59
2023/07/30 09:49:18;;;;;;;;;;;;;;;18.97;83.44;101055.16;5012858;28;19909;-58
2023/07/30 09:51:44;;;;;;;;;;;;;;;18.85;82.71;101048.16;5010800;28;19917;-58
2023/07/30 09:54:13;;;;;;;;;;;;;;;18.80;82.06;101048.22;5011961;28;19917;-58
2023/07/30 09:56:39;;;;;;;;;;;;;;;18.75;82.81;101055.25;5011548;28;20409;-58
2023/07/30 09:59:05;;;;;;;;;;;;;;;18.73;82.56;101064.97;5012376;28;19962;-58
2023/07/30 10:01:30;;;;;;;;;;;;;;;18.71;82.30;101056.16;5011322;28;19917;-58
2023/07/30 10:03:56;;;;;;;;;;;;;;;18.71;83.21;101059.72;5011467;28;19909;-58
2023/07/30 10:06:23;;;;;;;;;;;;;;;19.01;78.88;101046.31;5009498;28;20410;-58
2023/07/30 10:08:49;;;;;;;;;;;;;;;18.84;79.38;101060.50;5012355;28;19913;-58
2023/07/30 10:11:14;;;;;;;;;;;;;;;18.88;79.35;101067.53;5012173;28;19909;-58
2023/07/30 10:13:40;;;;;;;;;;;;;;;18.68;80.90;101064.13;5011161;28;20379;-58
2023/07/30 10:16:09;;;;;;;;;;;;;;;18.62;81.79;101066.81;5011430;28;19914;-58
2023/07/30 10:18:41;;;;;;;;;;;;;;;18.58;82.58;101072.09;5012085;28;19920;-58
2023/07/30 10:21:09;;;;;;;;;;;;;;;18.65;79.13;101074.69;5009527;28;19990;-58
2023/07/30 10:23:34;;;;;;;;;;;;;;;18.56;80.56;101073.84;5011927;28;20383;-58
2023/07/30 10:26:08;;;;;;;;;;;;;;;18.54;81.17;101078.28;5012061;28;20004;-58
2023/07/30 10:28:34;;;;;;;;;;;;;;;18.91;78.93;101072.78;5011882;28;19916;-57
2023/07/30 10:31:08;;;;;;;;;;;;;;;18.89;77.52;101089.53;5011918;28;20327;-57
2023/07/30 10:33:53;;;;;;;;;;;;;;;18.91;77.93;101090.41;5009061;28;19979;-58
2023/07/30 10:36:38;;;;;;;;;;;;;;;18.89;79.63;101100.97;5010546;28;19913;-58
2023/07/30 10:39:13;;;;;;;;;;;;;;;18.79;81.84;101107.16;4991418;28;19913;-58
2023/07/30 10:41:39;;;;;;;;;;;;;;;18.52;83.25;101116.09;5011533;28;20379;-57
2023/07/30 10:44:04;;;;;;;;;;;;;;;18.30;84.50;101110.06;5011602;28;19909;-57
2023/07/30 10:46:29;;;;;;;;;;;;;;;18.08;85.23;101105.72;4993838;28;19922;-57
2023/07/30 10:48:55;;;;;;;;;;;;;;;17.89;85.70;101115.41;5010149;28;19913;-57
2023/07/30 10:51:20;;;;;;;;;;;;;;;17.79;86.71;101108.41;5011550;28;20399;-57
2023/07/30 10:53:49;;;;;;;;;;;;;;;17.89;86.66;101099.59;5011485;28;20351;-57
2023/07/30 10:56:24;;;;;;;;;;;;;;;18.14;87.46;101102.19;5011431;28;20379;-57
2023/07/30 10:58:53;;;;;;;;;;;;;;;18.41;86.43;101100.34;5011527;28;19913;-57
2023/07/30 11:01:18;;;;;;;;;;;;;;;18.42;85.48;101089.78;5011320;28;20342;-57
2023/07/30 11:03:47;;;;;;;;;;;;;;;18.37;85.56;101095.97;5009189;28;19967;-58
2023/07/30 11:06:13;;;;;;;;;;;;;;;18.38;86.48;101108.28;5011443;28;19917;-57
2023/07/30 11:08:39;;;;;;;;;;;;;;;18.31;85.09;101107.41;5011671;28;20398;-57
2023/07/30 11:11:05;;;;;;;;;;;;;;;18.28;84.83;101109.16;5011314;28;19955;-58
2023/07/30 11:13:35;;;;;;;;;;;;;;;18.15;84.78;101111.88;5009477;28;19917;-58
2023/07/30 11:16:00;;;;;;;;;;;;;;;18.07;85.63;101104.00;5009345;28;19925;-58
2023/07/30 11:18:30;;;;;;;;;;;;;;;18.01;86.33;101111.03;5010679;28;19909;-58
2023/07/30 11:21:02;;;;;;;;;;;;;;;18.20;87.40;101106.56;5010226;28;19917;-58
2023/07/30 11:23:27;;;;;;;;;;;;;;;18.36;85.77;101097.69;5011227;28;19909;-57
2023/07/30 11:25:52;;;;;;;;;;;;;;;18.54;83.13;101111.72;4993596;28;19913;-58
2023/07/30 11:28:27;;;;;;;;;;;;;;;18.68;81.19;101107.22;5008403;28;19914;-58
2023/07/30 11:30:52;;;;;;;;;;;;;;;18.92;80.84;101115.91;5004151;28;19921;-58
2023/07/30 11:33:17;;;;;;;;;;;;;;;19.26;80.10;101126.22;5010298;28;19914;-57
2023/07/30 11:35:43;;;;;;;;;;;;;;;19.54;79.17;101115.44;5010304;28;20070;-58
2023/07/30 11:38:09;;;;;;;;;;;;;;;19.78;78.37;101116.94;5010192;28;20958;-57
2023/07/30 11:40:34;;;;;;;;;;;;;;;19.94;76.96;101117.69;5017078;28;19913;-57
2023/07/30 11:42:59;;;;;;;;;;;;;;;19.97;75.49;101123.84;5010014;28;19928;-57
2023/07/30 11:45:24;;;;;;;;;;;;;;;19.94;73.62;101136.22;5009286;28;19929;-57
2023/07/30 11:47:50;;;;;;;;;;;;;;;19.99;72.94;101134.41;5011109;28;19969;-55
2023/07/30 11:50:15;;;;;;;;;;;;;;;19.95;75.68;101128.25;5010780;28;19962;-55
2023/07/30 11:52:54;;;;;;;;;;;;;;;20.08;74.36;101123.72;5019102;28;20015;-57
2023/07/30 11:55:20;;;;;;;;;;;;;;;20.26;72.81;101132.31;5014037;28;19909;-55
2023/07/30 11:57:45;;;;;;;;;;;;;;;20.50;72.67;101120.56;5009202;28;19921;-55
2023/07/30 12:00:11;;;;;;;;;;;;;;;20.74;73.31;101119.41;5005919;28;19914;-55
2023/07/30 12:02:37;;;;;;;;;;;;;;;20.99;73.00;101119.88;5006264;28;19955;-56
2023/07/30 12:05:03;;;;;;;;;;;;;;;21.15;70.22;101130.25;5010040;28;20428;-55
2023/07/30 12:07:28;;;;;;;;;;;;;;;21.07;67.02;101126.84;5009250;28;20012;-55
2023/07/30 12:09:53;;;;;;;;;;;;;;;20.80;66.33;101124.59;5008854;28;20386;-56
2023/07/30 12:12:18;;;;;;;;;;;;;;;20.48;67.87;101139.13;5009308;28;20398;-55
2023/07/30 12:14:46;;;;;;;;;;;;;;;20.31;67.94;101131.38;5007487;28;19921;-55
2023/07/30 12:17:11;;;;;;;;;;;;;;;20.46;62.21;101147.97;4997872;28;19921;-55
2023/07/30 12:19:36;;;;;;;;;;;;;;;20.18;65.68;101148.31;5013128;28;19910;-55
2023/07/30 12:22:02;;;;;;;;;;;;;;;20.12;65.49;101141.31;5016951;28;19995;-54
2023/07/30 12:24:27;;;;;;;;;;;;;;;20.38;65.35;101131.28;5008190;28;19916;-55
2023/07/30 12:26:53;;;;;;;;;;;;;;;20.43;65.39;101140.06;5010118;28;20290;-55
2023/07/30 12:29:18;;;;;;;;;;;;;;;20.52;66.73;101139.94;5015417;28;20004;-55